Time;durP1;ratioP1;P1;durP2;ratioP2;P2;SDS_P1;SDS_P2;PMS_P1;PMS_P2;Temp;Humidity;BMP_temperature;BMP_pressure;BME280_temperature;BME280_humidity;BME280_pressure;Samples;Min_cycle;Max_cycle;Signal;HPM_P1;HPM_P2
2022/12/18 12:20:31;;;;;;;18.07;12.65;;;;;;;-5.87;100.00;100593.22;1839590;77;28456;-69
2022/12/18 12:23:15;;;;;;;19.32;11.78;;;;;;;-5.35;100.00;100609.11;1818456;78;20905;-70
2022/12/18 12:26:11;;;;;;;12.00;9.38;;;;;;;-5.21;100.00;100579.20;1820254;78;21163;-70
2022/12/18 12:29:02;;;;;;;20.32;12.78;;;;;;;-4.80;100.00;100616.80;1819999;78;20889;-70
2022/12/18 12:31:38;;;;;;;16.07;11.97;;;;;;;-4.44;100.00;100620.73;1820214;78;21406;-69
2022/12/18 12:34:38;;;;;;;15.40;11.73;;;;;;;-4.08;100.00;100629.03;1819488;78;20869;-70
2022/12/18 12:37:47;;;;;;;17.42;11.85;;;;;;;-4.39;100.00;100631.65;1820091;78;20955;-70
2022/12/18 12:40:20;;;;;;;20.90;13.22;;;;;;;-4.19;100.00;100643.54;1820390;78;21407;-70
2022/12/18 12:43:13;;;;;;;21.33;12.37;;;;;;;-4.03;100.00;100649.13;1820374;78;20877;-70
2022/12/18 12:45:51;;;;;;;18.50;12.82;;;;;;;-3.85;100.00;100631.45;1820254;78;21410;-70
2022/12/18 12:48:36;;;;;;;21.10;13.28;;;;;;;-3.68;100.00;100658.34;1820251;78;20960;-70
2022/12/18 12:51:24;;;;;;;18.17;10.80;;;;;;;-3.58;100.00;100665.76;1817741;78;21292;-70
2022/12/18 12:53:51;;;;;;;16.15;11.22;;;;;;;-3.64;100.00;100666.80;1820323;78;21177;-70
2022/12/18 12:56:20;;;;;;;19.00;11.40;;;;;;;-3.69;100.00;100678.52;1820168;78;21525;-69
2022/12/18 12:59:29;;;;;;;16.95;11.97;;;;;;;-3.59;100.00;100677.23;1820158;78;24593;-70
2022/12/18 13:02:12;;;;;;;17.30;11.78;;;;;;;-3.57;100.00;100679.73;1820110;78;21486;-70
2022/12/18 13:05:03;;;;;;;19.00;12.78;;;;;;;-3.76;100.00;100676.56;1820262;78;20908;-70
2022/12/18 13:07:41;;;;;;;23.12;12.85;;;;;;;-3.53;100.00;100688.98;1817197;78;21155;-69
2022/12/18 13:10:21;;;;;;;19.05;12.65;;;;;;;-3.58;100.00;100697.73;1820257;78;25061;-69
2022/12/18 13:13:05;;;;;;;17.57;12.98;;;;;;;-3.55;100.00;100698.77;1820353;78;21449;-69
2022/12/18 13:16:05;;;;;;;17.77;12.03;;;;;;;-3.70;100.00;100709.67;1820444;78;20850;-71
2022/12/18 13:18:33;;;;;;;21.00;14.70;;;;;;;-3.85;100.00;100718.02;1820269;78;20873;-71
2022/12/18 13:21:05;;;;;;;21.75;13.70;;;;;;;-3.86;100.00;100724.23;1820311;78;21405;-69
2022/12/18 13:23:38;;;;;;;21.77;16.02;;;;;;;-3.89;100.00;100702.55;1818396;78;21399;-70
2022/12/18 13:26:19;;;;;;;23.40;16.95;;;;;;;-4.21;100.00;100737.25;1820008;78;20987;-71
2022/12/18 13:28:50;;;;;;;26.07;18.87;;;;;;;-4.34;100.00;100730.38;1819854;78;20921;-72
2022/12/18 13:31:44;;;;;;;37.20;24.90;;;;;;;-4.24;100.00;100731.75;1819529;79;21506;-71
2022/12/18 13:34:26;;;;;;;23.40;18.15;;;;;;;-4.11;100.00;100727.64;1819390;79;21197;-70
2022/12/18 13:36:55;;;;;;;17.75;14.18;;;;;;;-3.94;100.00;100740.15;1819345;79;20857;-70
2022/12/18 13:39:33;;;;;;;18.07;14.35;;;;;;;-3.94;100.00;100740.64;1819858;78;20908;-70
2022/12/18 13:43:12;;;;;;;18.07;12.85;;;;;;;-3.82;100.00;100755.78;1771828;78;20999;-69
2022/12/18 13:44:41;;;;;;;16.67;11.20;;;;;;;-3.89;100.00;100752.88;1807039;79;20892;-69
2022/12/18 13:47:34;;;;;;;18.17;12.50;;;;;;;-3.96;100.00;100763.05;1819645;79;21251;-69
2022/12/18 13:50:03;;;;;;;24.60;15.68;;;;;;;-3.99;100.00;100765.09;1819609;78;20865;-70
2022/12/18 13:52:36;;;;;;;19.98;13.18;;;;;;;-3.89;100.00;100776.48;1795468;78;20860;-69
2022/12/18 13:55:07;;;;;;;40.23;20.57;;;;;;;-3.84;100.00;100777.41;1812068;78;20881;-70
2022/12/18 13:57:38;;;;;;;26.50;16.73;;;;;;;-3.90;100.00;100783.98;1819522;79;20877;-70
2022/12/18 14:00:29;;;;;;;37.00;27.22;;;;;;;-3.73;100.00;100780.75;1819726;78;21122;-69
2022/12/18 14:02:57;;;;;;;133.43;60.33;;;;;;;-3.67;100.00;100788.12;1819477;79;20940;-69
2022/12/18 14:05:36;;;;;;;63.25;35.08;;;;;;;-3.92;100.00;100792.01;1819849;78;24790;-70
2022/12/18 14:08:10;;;;;;;23.22;18.20;;;;;;;-3.95;100.00;100792.73;1819411;79;20912;-70
2022/12/18 14:10:43;;;;;;;35.28;26.30;;;;;;;-3.93;100.00;100798.68;1769090;78;20865;-70
2022/12/18 14:13:11;;;;;;;33.70;21.07;;;;;;;-3.96;100.00;100804.20;1809719;78;21140;-70
2022/12/18 14:15:46;;;;;;;68.22;33.25;;;;;;;-3.82;100.00;100814.36;1819729;78;21526;-69
2022/12/18 14:18:43;;;;;;;36.50;20.30;;;;;;;-3.95;100.00;100822.41;1819522;79;20885;-70
2022/12/18 14:21:24;;;;;;;37.75;19.73;;;;;;;-4.33;100.00;100819.88;1819634;79;20917;-71
2022/12/18 14:24:19;;;;;;;80.28;38.90;;;;;;;-4.65;100.00;100815.96;1819264;79;20829;-69
2022/12/18 14:26:46;;;;;;;28.20;17.62;;;;;;;115.61;100.00;100813.10;1819501;79;20993;-69
2022/12/18 14:29:27;;;;;;;75.08;36.85;;;;;;;-4.35;100.00;100813.10;1819809;79;21441;-69
2022/12/18 14:32:16;;;;;;;40.25;20.02;;;;;;;-4.52;100.00;100817.92;1819446;79;20865;-69
2022/12/18 14:34:53;;;;;;;48.87;22.93;;;;;;;-4.48;100.00;100823.77;1819517;79;21451;-69
2022/12/18 14:37:23;;;;;;;43.25;25.10;;;;;;;-4.76;100.00;100822.05;1819568;79;20849;-69
2022/12/18 14:40:00;;;;;;;31.60;18.87;;;;;;;-4.76;100.00;100829.09;1819471;79;21236;-69
2022/12/18 14:42:27;;;;;;;47.45;24.80;;;;;;;-4.76;100.00;100829.09;1819663;78;20960;-70
2022/12/18 14:45:33;;;;;;;75.92;35.40;;;;;;;-4.76;100.00;100829.09;1819557;79;20833;-69
2022/12/18 14:48:00;;;;;;;70.28;31.10;;;;;;;-4.41;100.00;100843.28;1819488;79;20881;-70
2022/12/18 14:50:26;;;;;;;57.27;26.90;;;;;;;-4.47;100.00;100845.08;1819366;79;21534;-70
2022/12/18 14:52:53;;;;;;;51.00;24.43;;;;;;;-4.42;100.00;100832.42;1819524;79;21092;-71
2022/12/18 14:55:20;;;;;;;58.23;25.97;;;;;;;-4.53;100.00;100849.52;1819290;79;20865;-70
2022/12/18 14:57:52;;;;;;;36.70;19.87;;;;;;;-4.52;100.00;100857.72;1819567;79;20948;-70
2022/12/18 15:00:22;;;;;;;37.40;15.90;;;;;;;-4.35;100.00;100863.73;1819211;79;20881;-70
2022/12/18 15:02:56;;;;;;;20.45;12.75;;;;;;;-4.48;100.00;100864.39;1819466;79;20917;-70
2022/12/18 15:05:29;;;;;;;25.45;13.55;;;;;;;-4.51;100.00;100873.78;1777768;78;21141;-71
2022/12/18 15:07:58;;;;;;;33.65;16.65;;;;;;;-4.55;100.00;100866.66;1818068;78;20925;-71
2022/12/18 15:10:32;;;;;;;19.25;12.40;;;;;;;-4.81;100.00;100877.09;1819285;78;20928;-70
2022/12/18 15:13:05;;;;;;;39.83;22.48;;;;;;;-4.79;100.00;100897.45;1818818;78;20865;-71
2022/12/18 15:15:43;;;;;;;30.17;18.48;;;;;;;-4.73;100.00;100906.11;1819374;79;20860;-71
2022/12/18 15:18:16;;;;;;;35.52;19.05;;;;;;;-4.56;100.00;100908.25;1819480;79;21250;-70
2022/12/18 15:20:54;;;;;;;41.65;23.57;;;;;;;-4.32;100.00;100909.84;1819387;79;20873;-70
2022/12/18 15:23:45;;;;;;;17.85;12.15;;;;;;;-4.62;100.00;100924.93;1819473;79;20968;-70
2022/12/18 15:26:14;;;;;;;18.05;11.22;;;;;;;-4.69;100.00;100925.88;1818766;79;20925;-70
2022/12/18 15:28:55;;;;;;;39.03;19.23;;;;;;;-4.55;100.00;100926.11;1819383;79;21410;-70
2022/12/18 15:31:31;;;;;;;24.37;14.33;;;;;;;-4.31;100.00;100932.01;1820176;78;21132;-69
2022/12/18 15:34:09;;;;;;;15.25;11.08;;;;;;;-4.68;100.00;100939.33;1775464;78;21540;-69
2022/12/18 15:36:36;;;;;;;35.68;17.17;;;;;;;-4.55;100.00;100917.77;1819933;78;20905;-70
2022/12/18 15:39:03;;;;;;;26.70;16.97;;;;;;;-4.40;100.00;100942.40;1819515;79;20928;-70
2022/12/18 15:41:33;;;;;;;67.72;30.15;;;;;;;-4.25;100.00;100952.13;1819578;79;21418;-68
2022/12/18 15:43:59;;;;;;;46.63;32.42;;;;;;;-4.38;100.00;100960.15;1819331;79;21240;-70
2022/12/18 15:46:27;;;;;;;52.53;30.45;;;;;;;-4.58;100.00;100969.56;1819529;79;21494;-69
2022/12/18 15:48:55;;;;;;;40.55;21.75;;;;;;;-5.00;100.00;100966.28;1819742;79;20846;-69
2022/12/18 15:51:31;;;;;;;;;;;;;;;-4.76;100.00;100980.55;1822424;79;20924;-72
2022/12/18 15:54:01;;;;;;;55.92;26.00;;;;;;;-4.97;100.00;100956.05;1819503;79;20415;-70
2022/12/18 15:59:18;;;;;;;39.73;22.00;;;;;;;-5.19;100.00;100990.41;1819314;79;20889;-70
2022/12/18 16:01:47;;;;;;;89.85;38.92;;;;;;;-4.99;100.00;100995.43;1819353;78;21042;-69
2022/12/18 16:04:16;;;;;;;165.70;63.92;;;;;;;-4.96;100.00;101008.28;1819625;78;20920;-70
2022/12/18 16:06:43;;;;;;;91.45;36.65;;;;;;;-4.67;100.00;101013.06;1819682;79;20873;-70
2022/12/18 16:09:09;;;;;;;79.70;33.40;;;;;;;-4.62;100.00;101010.09;1819331;79;21152;-70
2022/12/18 16:11:38;;;;;;;79.95;32.80;;;;;;;-4.65;100.00;101009.02;1819326;79;20917;-70
2022/12/18 16:14:08;;;;;;;34.08;17.57;;;;;;;-4.71;100.00;101004.25;1819740;78;20873;-70
2022/12/18 16:16:35;;;;;;;14.47;11.15;;;;;;;-4.89;100.00;101026.16;1819138;79;20999;-70
2022/12/18 16:19:02;;;;;;;15.25;11.68;;;;;;;-5.29;100.00;101013.45;1819488;79;20912;-70
2022/12/18 16:21:29;;;;;;;17.23;11.80;;;;;;;-5.35;100.00;101019.16;1819408;79;21259;-69
2022/12/18 16:23:56;;;;;;;23.42;13.13;;;;;;;-5.17;100.00;101021.69;1819371;79;20912;-69
2022/12/18 16:26:23;;;;;;;20.85;14.28;;;;;;;-5.27;100.00;101041.18;1819408;79;21526;-70
2022/12/18 16:28:50;;;;;;;16.30;12.05;;;;;;;-5.51;100.00;101051.72;1819381;79;20937;-69
2022/12/18 16:31:17;;;;;;;25.68;15.50;;;;;;;-5.60;100.00;101018.38;1769606;80;20916;-69
2022/12/18 16:33:43;;;;;;;19.65;11.20;;;;;;;-5.54;100.00;101068.92;1821000;78;21181;-69
2022/12/18 16:36:10;;;;;;;19.62;14.03;;;;;;;-5.51;100.00;101063.94;1820919;78;20869;-69
2022/12/18 16:38:37;;;;;;;17.55;10.43;;;;;;;-5.64;100.00;101063.53;1819207;79;20944;-70
2022/12/18 16:41:33;;;;;;;17.52;12.95;;;;;;;-5.63;100.00;101065.70;1819493;79;20877;-69
2022/12/18 16:44:00;;;;;;;13.70;10.82;;;;;;;-5.86;100.00;101072.09;1819290;79;20873;-70
2022/12/18 16:46:27;;;;;;;16.27;11.48;;;;;;;-5.71;100.00;101074.55;1819352;79;21277;-68
2022/12/18 16:48:53;;;;;;;20.90;13.35;;;;;;;-5.67;100.00;101075.53;1819302;79;20909;-69
2022/12/18 16:51:20;;;;;;;13.10;11.05;;;;;;;-5.74;100.00;101071.69;1819265;79;20829;-72
2022/12/18 16:53:46;;;;;;;24.25;15.50;;;;;;;-5.79;100.00;101062.03;1819245;79;20921;-69
2022/12/18 16:56:13;;;;;;;24.37;14.65;;;;;;;-5.74;100.00;101080.84;1819381;79;20908;-70
2022/12/18 16:58:40;;;;;;;28.67;15.70;;;;;;;-5.88;100.00;101088.84;1819466;79;21315;-70
2022/12/18 17:01:10;;;;;;;37.95;19.48;;;;;;;-5.98;100.00;101094.40;1819510;79;21497;-70
2022/12/18 17:03:37;;;;;;;22.07;13.32;;;;;;;-6.10;100.00;101101.33;1819353;78;20877;-69
2022/12/18 17:06:05;;;;;;;33.18;18.65;;;;;;;-6.27;100.00;101109.91;1819723;79;21395;-71
2022/12/18 17:08:32;;;;;;;17.90;13.05;;;;;;;-6.27;100.00;101112.96;1819646;79;20861;-71
2022/12/18 17:11:08;;;;;;;21.07;12.78;;;;;;;-6.30;100.00;101112.70;1819409;79;21141;-70
2022/12/18 17:13:34;;;;;;;29.27;16.55;;;;;;;-6.23;100.00;101123.58;1819520;79;21333;-71
2022/12/18 17:16:07;;;;;;;34.05;18.32;;;;;;;-6.24;100.00;101126.31;1819460;79;20928;-69
2022/12/18 17:18:34;;;;;;;44.90;20.15;;;;;;;-6.28;100.00;101119.14;1819330;79;20877;-70
2022/12/18 17:21:03;;;;;;;139.25;47.65;;;;;;;-6.43;100.00;101124.95;1819593;79;21427;-69
2022/12/18 17:23:31;;;;;;;53.00;21.48;;;;;;;-6.51;100.00;101134.63;1819380;79;20866;-70
2022/12/18 17:25:58;;;;;;;98.47;34.80;;;;;;;-6.48;100.00;101132.28;1819487;79;20964;-71
2022/12/18 17:28:26;;;;;;;38.75;20.40;;;;;;;-6.20;100.00;101126.45;1819724;79;21003;-69
2022/12/18 17:30:54;;;;;;;93.85;37.10;;;;;;;-6.34;100.00;101137.88;1819812;78;20955;-71
2022/12/18 17:33:20;;;;;;;26.60;17.23;;;;;;;-6.35;100.00;101136.19;1819610;79;20838;-69
2022/12/18 17:35:47;;;;;;;20.02;12.63;;;;;;;-6.49;100.00;101136.67;1819498;79;21240;-69
2022/12/18 17:38:14;;;;;;;24.05;13.22;;;;;;;-6.56;100.00;101147.65;1819568;79;20877;-69
2022/12/18 17:40:41;;;;;;;29.15;16.42;;;;;;;-6.42;100.00;101109.63;1819444;79;20873;-70
2022/12/18 17:43:09;;;;;;;31.48;18.45;;;;;;;-6.26;100.00;101148.63;1819491;79;21502;-71
2022/12/18 17:45:39;;;;;;;22.13;14.28;;;;;;;-6.23;100.00;101150.19;1819525;79;21569;-70
2022/12/18 17:48:07;;;;;;;21.40;13.60;;;;;;;-6.44;100.00;101157.27;1819684;79;21382;-69
2022/12/18 17:50:34;;;;;;;14.45;11.57;;;;;;;-6.38;100.00;101141.16;1819749;78;20892;-69
2022/12/18 17:53:01;;;;;;;19.60;11.83;;;;;;;-6.63;100.00;101151.14;1819557;79;20912;-70
2022/12/18 17:55:27;;;;;;;18.70;13.00;;;;;;;-6.46;100.00;101160.45;1819524;79;21505;-69
2022/12/18 17:57:56;;;;;;;24.63;18.30;;;;;;;-6.46;100.00;101165.67;1819551;79;21019;-69
2022/12/18 18:00:22;;;;;;;38.53;17.98;;;;;;;-6.31;100.00;101173.77;1819533;79;21162;-70
2022/12/18 18:02:49;;;;;;;25.00;17.05;;;;;;;-6.31;100.00;101165.92;1819425;79;20909;-69
2022/12/18 18:05:15;;;;;;;20.92;14.23;;;;;;;-6.38;100.00;101169.06;1819345;79;20948;-69
2022/12/18 18:07:44;;;;;;;98.87;45.58;;;;;;;-6.35;100.00;101172.77;1819612;79;21379;-71
2022/12/18 18:10:11;;;;;;;24.15;14.98;;;;;;;-6.29;100.00;101186.26;1819408;79;20900;-70
2022/12/18 18:15:23;;;;;;;26.15;13.28;;;;;;;-6.28;100.00;101194.45;1819321;78;20888;-71
2022/12/18 18:17:50;;;;;;;57.05;24.25;;;;;;;-6.30;100.00;101200.73;1819551;79;20912;-70
2022/12/18 18:20:18;;;;;;;86.70;34.70;;;;;;;-6.41;100.00;101205.38;1819643;79;21465;-71
2022/12/18 18:22:44;;;;;;;62.73;24.27;;;;;;;-6.46;100.00;101211.39;1819443;79;20873;-69
2022/12/18 18:25:11;;;;;;;23.62;13.08;;;;;;;-6.61;100.00;101215.01;1819508;79;21085;-70
2022/12/18 18:27:38;;;;;;;26.00;15.07;;;;;;;-6.62;100.00;101201.59;1819819;79;20908;-69
2022/12/18 18:30:07;;;;;;;63.80;22.62;;;;;;;-6.53;100.00;101214.88;1819413;79;20995;-70
2022/12/18 18:32:38;;;;;;;44.70;20.17;;;;;;;-6.66;100.00;101217.09;1819643;79;20916;-69
2022/12/18 18:35:02;;;;;;;;;;;;;;;-6.77;100.00;101204.75;1821623;79;20905;-69
2022/12/18 18:37:29;;;;;;;25.92;16.80;;;;;;;-6.80;100.00;101210.19;1819509;79;21561;-69
2022/12/18 18:39:56;;;;;;;19.80;12.40;;;;;;;-6.60;100.00;101224.06;1819230;79;20920;-71
2022/12/18 18:42:22;;;;;;;17.50;11.48;;;;;;;-6.65;100.00;101226.14;1819490;79;20949;-70
2022/12/18 18:44:49;;;;;;;22.70;13.45;;;;;;;-6.76;100.00;101222.95;1819410;79;20956;-69
2022/12/18 18:47:17;;;;;;;22.58;14.47;;;;;;;-6.70;100.00;101236.06;1819600;79;20909;-70
2022/12/18 18:49:44;;;;;;;19.67;13.62;;;;;;;-6.71;100.00;101232.62;1819630;79;21287;-72
2022/12/18 18:52:11;;;;;;;23.55;15.08;;;;;;;-6.85;100.00;101232.68;1819412;79;20833;-69
2022/12/18 18:54:37;;;;;;;25.90;15.23;;;;;;;-6.56;100.00;101240.38;1819540;79;20912;-69
2022/12/18 18:57:04;;;;;;;23.12;13.48;;;;;;;-6.69;100.00;101236.41;1819473;79;20869;-71
2022/12/18 18:59:31;;;;;;;20.40;13.32;;;;;;;-6.79;100.00;101232.27;1819548;79;20906;-70
2022/12/18 19:01:59;;;;;;;15.30;12.05;;;;;;;-6.79;100.00;101249.71;1819374;79;21237;-71
2022/12/18 19:04:28;;;;;;;24.65;16.42;;;;;;;-6.78;100.00;101240.95;1819261;79;20960;-70
2022/12/18 19:06:54;;;;;;;21.05;15.15;;;;;;;-6.72;100.00;101254.43;1747775;80;21617;-69
2022/12/18 19:09:21;;;;;;;18.07;11.83;;;;;;;-6.86;100.00;101257.57;1819401;78;20893;-70
2022/12/18 19:14:33;;;;;;;26.27;12.78;;;;;;;-6.85;100.00;101257.48;1819452;79;21264;-70
2022/12/18 19:17:00;;;;;;;22.42;13.95;;;;;;;-6.92;100.00;101277.09;1819376;79;20834;-70
2022/12/18 19:19:27;;;;;;;30.32;17.40;;;;;;;-6.76;100.00;101283.01;1819273;79;20897;-69
2022/12/18 19:21:54;;;;;;;24.27;15.20;;;;;;;-6.88;100.00;101272.05;1819398;79;20932;-69
2022/12/18 19:24:21;;;;;;;15.93;12.85;;;;;;;-6.87;100.00;101296.38;1819511;79;20845;-70
2022/12/18 19:26:48;;;;;;;24.25;14.50;;;;;;;-6.98;100.00;101297.05;1819478;78;21161;-69
2022/12/18 19:29:14;;;;;;;24.15;15.38;;;;;;;-6.97;100.00;101306.58;1819248;79;20905;-68
2022/12/18 19:31:41;;;;;;;22.42;15.10;;;;;;;-7.00;100.00;101305.00;1819615;79;20861;-70
2022/12/18 19:34:08;;;;;;;24.15;16.73;;;;;;;-7.09;100.00;101309.96;1819468;79;20913;-69
2022/12/18 19:36:37;;;;;;;22.02;14.10;;;;;;;-7.17;100.00;101311.28;1819666;79;21048;-70
2022/12/18 19:39:14;;;;;;;21.02;14.75;;;;;;;-7.00;100.00;101319.36;1819456;79;21886;-70
2022/12/18 19:41:41;;;;;;;20.70;12.40;;;;;;;-6.96;100.00;101322.13;1819187;78;20876;-70
2022/12/18 19:44:10;;;;;;;39.33;24.47;;;;;;;-7.13;100.00;101315.83;1819383;79;21457;-68
2022/12/18 19:46:37;;;;;;;34.05;17.02;;;;;;;-7.22;100.00;101325.08;1819323;79;20920;-70
2022/12/18 19:49:06;;;;;;;23.05;16.07;;;;;;;-6.94;100.00;101335.92;1819429;79;23448;-70
2022/12/18 19:51:32;;;;;;;24.32;14.00;;;;;;;-6.99;100.00;101347.59;1819332;79;21418;-70
2022/12/18 19:54:00;;;;;;;21.15;13.30;;;;;;;-7.02;100.00;101347.80;1819317;79;20885;-69
2022/12/18 19:56:30;;;;;;;16.77;13.70;;;;;;;-7.03;100.00;101343.05;1791691;78;21500;-70
2022/12/18 19:58:56;;;;;;;63.42;27.75;;;;;;;-7.02;100.00;101349.09;1816310;78;21475;-68
2022/12/18 20:01:24;;;;;;;19.15;12.35;;;;;;;-6.85;100.00;101349.34;1819460;79;20857;-69
2022/12/18 20:03:51;;;;;;;29.12;14.98;;;;;;;-6.73;100.00;101359.02;1819657;78;21182;-70
2022/12/18 20:06:28;;;;;;;46.42;25.15;;;;;;;-6.95;100.00;101354.31;1819727;79;21493;-70
2022/12/18 20:08:57;;;;;;;100.27;36.03;;;;;;;-7.15;100.00;101356.86;1819438;79;20858;-70
2022/12/18 20:11:24;;;;;;;23.60;13.05;;;;;;;-7.07;100.00;101375.96;1819268;79;20893;-70
2022/12/18 20:13:51;;;;;;;71.40;23.90;;;;;;;-7.07;100.00;101375.96;1819472;79;20838;-70
2022/12/18 20:16:18;;;;;;;45.92;20.17;;;;;;;-7.29;100.00;101376.44;1819288;79;21338;-69
2022/12/18 20:18:45;;;;;;;53.25;22.17;;;;;;;-7.02;100.00;101384.34;1819279;79;20912;-70
2022/12/18 20:21:12;;;;;;;48.83;23.05;;;;;;;-7.18;100.00;101386.60;1819434;79;20838;-69
2022/12/18 20:23:38;;;;;;;25.10;14.15;;;;;;;-7.28;100.00;101385.94;1819246;79;20889;-69
2022/12/18 20:26:05;;;;;;;79.12;28.00;;;;;;;-7.19;100.00;101390.13;1819695;79;21394;-68
2022/12/18 20:28:32;;;;;;;89.50;36.83;;;;;;;-6.99;100.00;101394.11;1819799;79;21166;-69
2022/12/18 20:31:01;;;;;;;46.68;20.35;;;;;;;-7.05;100.00;101400.20;1819406;79;20944;-69
2022/12/18 20:33:29;;;;;;;24.43;12.88;;;;;;;-7.04;100.00;101401.86;1819408;79;20991;-69
2022/12/18 20:36:06;;;;;;;25.15;16.40;;;;;;;-6.93;100.00;101408.11;1819389;79;20952;-70
2022/12/18 20:38:34;;;;;;;39.27;19.02;;;;;;;-6.96;100.00;101409.58;1819804;78;21028;-69
2022/12/18 20:41:03;;;;;;;21.47;14.63;;;;;;;-6.87;100.00;101409.48;1819864;79;21832;-68
2022/12/18 20:43:29;;;;;;;28.00;18.17;;;;;;;-6.73;100.00;101409.94;1819943;78;20877;-71
2022/12/18 20:46:03;;;;;;;29.48;16.50;;;;;;;-6.95;100.00;101412.58;1819634;79;20991;-69
2022/12/18 20:48:30;;;;;;;27.60;19.55;;;;;;;-6.92;100.00;101424.13;1819449;79;20936;-70
2022/12/18 20:51:04;;;;;;;20.77;16.95;;;;;;;-6.88;100.00;101431.32;1819643;79;20971;-70
2022/12/18 20:53:33;;;;;;;17.12;12.20;;;;;;;-6.91;100.00;101423.21;1819447;79;21230;-69
2022/12/18 20:56:01;;;;;;;21.68;15.60;;;;;;;-7.02;100.00;101422.19;1819632;79;20956;-68
2022/12/18 20:58:28;;;;;;;22.93;14.45;;;;;;;-6.89;100.00;101424.41;1819781;79;20944;-68
2022/12/18 21:01:14;;;;;;;22.98;14.65;;;;;;;-6.91;100.00;101428.88;1819385;79;21826;-70
2022/12/18 21:03:42;;;;;;;22.65;15.20;;;;;;;-7.01;100.00;101423.86;1819426;79;20912;-69
2022/12/18 21:06:10;;;;;;;24.70;16.40;;;;;;;-7.01;100.00;101431.69;1819428;79;20846;-70
2022/12/18 21:08:38;;;;;;;18.67;13.17;;;;;;;-7.12;100.00;101435.80;1819576;79;20959;-70
2022/12/18 21:14:20;;;;;;;23.40;15.15;;;;;;;-7.18;100.00;101442.71;1819549;79;20917;-68
2022/12/18 21:16:47;;;;;;;27.75;17.65;;;;;;;-7.16;100.00;101450.42;1819465;79;20925;-67
2022/12/18 21:19:17;;;;;;;25.12;14.73;;;;;;;-6.99;100.00;101454.63;1819403;79;21148;-68
2022/12/18 21:21:44;;;;;;;23.98;16.82;;;;;;;-7.06;100.00;101454.16;1819313;79;21454;-71
2022/12/18 21:24:11;;;;;;;36.03;20.40;;;;;;;-7.01;100.00;101454.70;1819444;79;20904;-69
2022/12/18 21:26:38;;;;;;;26.17;16.85;;;;;;;-145.15;100.00;101454.70;1819508;79;20904;-69
2022/12/18 21:29:07;;;;;;;26.68;17.98;;;;;;;-7.01;100.00;101454.70;1819430;79;20941;-68
2022/12/18 21:31:36;;;;;;;28.27;16.32;;;;;;;-145.15;0.00;121243.64;1801441;78;21244;-70
2022/12/18 21:34:04;;;;;;;24.70;15.23;;;;;;;-146.13;100.00;101454.70;1819868;78;20893;-69
2022/12/18 21:36:32;;;;;;;26.17;13.48;;;;;;;-145.15;0.00;101454.70;1819548;79;20858;-70
2022/12/18 21:38:59;;;;;;;22.57;15.73;;;;;;;-145.15;100.00;80574.95;1820032;78;20948;-69
2022/12/18 21:44:16;;;;;;;23.70;15.18;;;;;;;-7.01;100.00;101454.70;1819688;79;21211;-70
2022/12/18 21:46:46;;;;;;;40.10;20.08;;;;;;;-145.15;0.00;101454.70;1819481;79;20900;-70
2022/12/18 21:49:16;;;;;;;29.90;17.60;;;;;;;-145.15;100.00;101454.70;1819678;78;20976;-69
2022/12/18 21:51:45;;;;;;;34.55;18.52;;;;;;;-145.15;100.00;101454.70;1819342;79;21376;-69
2022/12/18 21:54:11;;;;;;;21.40;14.20;;;;;;;-145.15;100.00;101454.70;1819574;79;20900;-67
2022/12/18 21:56:49;;;;;;;22.95;16.17;;;;;;;-145.15;100.00;101454.70;1819569;79;21259;-68
2022/12/18 21:59:26;;;;;;;35.58;20.10;;;;;;;-145.15;0.00;80441.02;1819500;79;20948;-70
2022/12/18 22:01:55;;;;;;;19.85;13.32;;;;;;;-145.15;100.00;101454.70;1819791;78;20904;-69
2022/12/18 22:04:25;;;;;;;23.35;17.25;;;;;;;-145.15;100.00;101454.70;1819361;79;20889;-68
2022/12/18 22:06:53;;;;;;;27.60;16.48;;;;;;;-145.15;100.00;101454.70;1819631;79;20855;-68
2022/12/18 22:09:23;;;;;;;31.62;19.73;;;;;;;-7.01;100.00;101454.70;1819528;79;21276;-69
2022/12/18 22:11:50;;;;;;;36.90;16.73;;;;;;;-145.15;0.00;80441.02;1819410;79;20904;-69
2022/12/18 22:14:20;;;;;;;56.83;39.48;;;;;;;-145.15;0.00;80441.02;1819583;79;20948;-69
2022/12/18 22:16:48;;;;;;;82.30;50.58;;;;;;;-7.01;100.00;101454.70;1819676;79;20940;-67
2022/12/18 22:19:15;;;;;;;42.75;23.80;;;;;;;109.77;100.00;101477.45;1819339;79;20904;-71
2022/12/18 22:21:45;;;;;;;86.12;48.38;;;;;;;109.77;100.00;101477.45;1819465;79;21262;-69
2022/12/18 22:24:19;;;;;;;57.53;27.67;;;;;;;109.77;100.00;101477.45;1819722;78;20908;-69
2022/12/18 22:26:46;;;;;;;101.85;41.00;;;;;;;109.77;0.00;101477.45;1819469;79;20920;-70
2022/12/18 22:32:07;;;;;;;86.12;35.73;;;;;;;109.77;0.00;80433.83;1819544;79;20873;-70
2022/12/18 22:34:34;;;;;;;40.05;20.70;;;;;;;-6.81;100.00;101477.45;1819646;78;21849;-70
2022/12/18 22:37:01;;;;;;;55.43;31.23;;;;;;;109.77;100.00;101477.45;1819256;79;21007;-70
2022/12/18 22:39:28;;;;;;;40.67;23.50;;;;;;;109.77;100.00;101477.45;1796096;78;20962;-70
2022/12/18 22:41:55;;;;;;;27.17;15.43;;;;;;;-6.81;100.00;101477.45;1819678;79;21320;-70
2022/12/18 22:44:22;;;;;;;30.57;18.35;;;;;;;111.57;100.00;101480.38;1819376;79;21203;-70
2022/12/18 22:46:51;;;;;;;28.75;18.95;;;;;;;111.57;100.00;101480.38;1819562;79;22110;-70
2022/12/18 22:49:21;;;;;;;39.03;21.55;;;;;;;-6.37;100.00;101480.38;1819366;79;20901;-70
2022/12/18 22:51:48;;;;;;;31.62;18.32;;;;;;;-6.18;100.00;101466.50;1819445;79;21479;-70
2022/12/18 22:54:15;;;;;;;57.70;33.60;;;;;;;-6.33;100.00;101465.72;1819484;79;20874;-70
2022/12/18 22:56:42;;;;;;;54.67;31.35;;;;;;;-6.34;100.00;101467.14;1819540;79;20914;-70
2022/12/18 22:59:21;;;;;;;34.08;17.42;;;;;;;-6.30;100.00;101471.22;1819551;79;20854;-69
2022/12/18 23:01:49;;;;;;;142.05;61.02;;;;;;;-6.29;100.00;101476.35;1819265;79;20952;-70
2022/12/18 23:04:16;;;;;;;169.85;63.78;;;;;;;-6.33;100.00;101472.25;1819736;78;21639;-70
2022/12/18 23:06:44;;;;;;;96.95;44.80;;;;;;;-6.24;100.00;101473.45;1819428;79;20885;-70
2022/12/18 23:09:18;;;;;;;55.10;26.33;;;;;;;-6.32;100.00;101468.72;1819426;79;21403;-70
2022/12/18 23:11:45;;;;;;;37.70;16.75;;;;;;;-6.17;100.00;101473.87;1819422;79;21212;-70
2022/12/18 23:14:13;;;;;;;58.65;26.05;;;;;;;-145.12;100.00;101473.87;1819219;79;21387;-71
2022/12/18 23:16:40;;;;;;;58.63;26.12;;;;;;;-6.17;100.00;101473.87;1819596;79;20917;-71
2022/12/18 23:19:06;;;;;;;68.90;30.88;;;;;;;-145.12;100.00;101473.87;1819254;79;21000;-70
2022/12/18 23:21:33;;;;;;;49.58;24.30;;;;;;;-145.12;100.00;101473.87;1819375;79;20918;-70
2022/12/18 23:24:00;;;;;;;97.42;42.62;;;;;;;-145.12;100.00;101473.87;1819265;79;21152;-70
2022/12/18 23:26:27;;;;;;;56.05;28.32;;;;;;;-145.12;100.00;80486.61;1819352;79;20964;-69
2022/12/18 23:28:55;;;;;;;86.45;42.75;;;;;;;-6.17;100.00;101473.87;1819555;79;20900;-70
2022/12/18 23:31:27;;;;;;;;;;;;;;;-6.17;100.00;101473.87;1821985;79;20920;-68
2022/12/18 23:33:56;;;;;;;53.83;24.95;;;;;;;-145.12;0.00;101473.87;1818914;79;20090;-68
2022/12/18 23:36:23;;;;;;;46.58;24.10;;;;;;;-145.12;100.00;101473.87;1819579;79;21228;-69
2022/12/18 23:38:52;;;;;;;36.75;21.33;;;;;;;-145.12;0.00;80348.69;1819294;79;20873;-70
2022/12/18 23:41:21;;;;;;;33.73;17.42;;;;;;;-6.17;100.00;101473.87;1819795;78;20966;-69
2022/12/18 23:43:48;;;;;;;;;;;;;;;-145.12;100.00;101473.87;1822141;79;20959;-69
2022/12/18 23:46:26;;;;;;;26.12;15.53;;;;;;;-145.12;0.00;80348.69;1819485;79;20086;-69
2022/12/18 23:48:53;;;;;;;27.87;17.40;;;;;;;-145.12;100.00;101473.87;1808940;78;21153;-70
2022/12/18 23:51:22;;;;;;;81.80;35.83;;;;;;;-145.12;100.00;80486.61;1823672;78;20960;-68
2022/12/18 23:53:53;;;;;;;48.52;23.67;;;;;;;-145.12;0.00;101473.87;1819284;79;20912;-68
2022/12/18 23:56:23;;;;;;;41.08;22.25;;;;;;;-145.12;0.00;80348.69;1819267;79;21008;-67